sensor_id;sensor_type;location;lat;lon;timestamp;P1;durP1;ratioP1;P2;durP2;ratioP2
6306;SDS011;3186;54.062;9.962;2023-01-30T00:02:24;59.70;;;30.50;;
6306;SDS011;3186;54.062;9.962;2023-01-30T00:04:50;56.73;;;29.87;;
6306;SDS011;3186;54.062;9.962;2023-01-30T00:07:15;55.77;;;31.83;;
6306;SDS011;3186;54.062;9.962;2023-01-30T00:09:41;56.90;;;29.50;;
6306;SDS011;3186;54.062;9.962;2023-01-30T00:12:07;54.60;;;29.93;;
6306;SDS011;3186;54.062;9.962;2023-01-30T00:14:33;50.83;;;29.50;;
6306;SDS011;3186;54.062;9.962;2023-01-30T00:16:58;56.70;;;31.30;;
6306;SDS011;3186;54.062;9.962;2023-01-30T00:19:24;58.13;;;30.30;;
6306;SDS011;3186;54.062;9.962;2023-01-30T00:21:50;53.47;;;30.10;;
6306;SDS011;3186;54.062;9.962;2023-01-30T00:24:16;54.93;;;29.47;;
6306;SDS011;3186;54.062;9.962;2023-01-30T00:26:41;53.30;;;29.00;;
6306;SDS011;3186;54.062;9.962;2023-01-30T00:29:07;57.60;;;30.70;;
6306;SDS011;3186;54.062;9.962;2023-01-30T00:31:33;55.63;;;31.57;;
6306;SDS011;3186;54.062;9.962;2023-01-30T00:33:59;59.97;;;30.27;;
6306;SDS011;3186;54.062;9.962;2023-01-30T00:36:25;64.47;;;31.10;;
6306;SDS011;3186;54.062;9.962;2023-01-30T00:38:51;54.40;;;30.43;;
6306;SDS011;3186;54.062;9.962;2023-01-30T00:41:16;57.80;;;31.40;;
6306;SDS011;3186;54.062;9.962;2023-01-30T00:43:43;57.70;;;30.13;;
6306;SDS011;3186;54.062;9.962;2023-01-30T00:46:31;54.50;;;30.17;;
6306;SDS011;3186;54.062;9.962;2023-01-30T00:49:18;57.17;;;29.63;;
6306;SDS011;3186;54.062;9.962;2023-01-30T00:51:44;56.07;;;29.40;;
6306;SDS011;3186;54.062;9.962;2023-01-30T00:54:11;54.40;;;29.60;;
6306;SDS011;3186;54.062;9.962;2023-01-30T00:56:37;52.23;;;28.97;;
6306;SDS011;3186;54.062;9.962;2023-01-30T00:59:03;53.83;;;30.67;;
6306;SDS011;3186;54.062;9.962;2023-01-30T01:01:29;53.80;;;29.33;;
6306;SDS011;3186;54.062;9.962;2023-01-30T01:03:54;50.83;;;27.03;;
6306;SDS011;3186;54.062;9.962;2023-01-30T01:06:20;51.63;;;28.83;;
6306;SDS011;3186;54.062;9.962;2023-01-30T01:08:46;51.00;;;28.77;;
6306;SDS011;3186;54.062;9.962;2023-01-30T01:11:12;53.40;;;28.93;;
6306;SDS011;3186;54.062;9.962;2023-01-30T01:13:49;55.43;;;26.33;;
6306;SDS011;3186;54.062;9.962;2023-01-30T01:16:18;49.27;;;27.63;;
6306;SDS011;3186;54.062;9.962;2023-01-30T01:18:45;47.20;;;25.73;;
6306;SDS011;3186;54.062;9.962;2023-01-30T01:21:11;41.97;;;23.07;;
6306;SDS011;3186;54.062;9.962;2023-01-30T01:23:37;40.63;;;23.57;;
6306;SDS011;3186;54.062;9.962;2023-01-30T01:26:04;39.27;;;23.77;;
6306;SDS011;3186;54.062;9.962;2023-01-30T01:28:30;46.13;;;24.77;;
6306;SDS011;3186;54.062;9.962;2023-01-30T01:30:55;41.40;;;23.27;;
6306;SDS011;3186;54.062;9.962;2023-01-30T01:33:25;36.90;;;22.10;;
6306;SDS011;3186;54.062;9.962;2023-01-30T01:35:55;42.67;;;22.83;;
6306;SDS011;3186;54.062;9.962;2023-01-30T01:38:21;37.17;;;21.90;;
6306;SDS011;3186;54.062;9.962;2023-01-30T01:40:47;33.10;;;21.67;;
6306;SDS011;3186;54.062;9.962;2023-01-30T01:44:13;33.67;;;19.77;;
6306;SDS011;3186;54.062;9.962;2023-01-30T01:49:11;35.90;;;18.40;;
6306;SDS011;3186;54.062;9.962;2023-01-30T01:54:32;31.57;;;18.27;;
6306;SDS011;3186;54.062;9.962;2023-01-30T01:57:04;37.53;;;18.23;;
6306;SDS011;3186;54.062;9.962;2023-01-30T01:59:34;34.00;;;18.00;;
6306;SDS011;3186;54.062;9.962;2023-01-30T02:02:09;31.60;;;17.33;;
6306;SDS011;3186;54.062;9.962;2023-01-30T02:04:37;28.60;;;16.17;;
6306;SDS011;3186;54.062;9.962;2023-01-30T02:10:17;31.23;;;16.17;;
6306;SDS011;3186;54.062;9.962;2023-01-30T02:12:46;25.00;;;14.87;;
6306;SDS011;3186;54.062;9.962;2023-01-30T02:15:13;27.50;;;14.00;;
6306;SDS011;3186;54.062;9.962;2023-01-30T02:17:39;25.87;;;14.53;;
6306;SDS011;3186;54.062;9.962;2023-01-30T02:25:50;22.03;;;11.63;;
6306;SDS011;3186;54.062;9.962;2023-01-30T02:34:44;20.67;;;11.03;;
6306;SDS011;3186;54.062;9.962;2023-01-30T02:43:12;15.43;;;9.73;;
6306;SDS011;3186;54.062;9.962;2023-01-30T02:45:47;17.00;;;10.10;;
6306;SDS011;3186;54.062;9.962;2023-01-30T02:48:29;17.20;;;9.53;;
6306;SDS011;3186;54.062;9.962;2023-01-30T02:51:21;13.67;;;7.03;;
6306;SDS011;3186;54.062;9.962;2023-01-30T02:53:51;20.80;;;6.53;;
6306;SDS011;3186;54.062;9.962;2023-01-30T02:56:18;11.17;;;6.00;;
6306;SDS011;3186;54.062;9.962;2023-01-30T02:58:51;11.20;;;5.63;;
6306;SDS011;3186;54.062;9.962;2023-01-30T03:09:59;10.03;;;4.57;;
6306;SDS011;3186;54.062;9.962;2023-01-30T03:12:40;15.83;;;4.83;;
6306;SDS011;3186;54.062;9.962;2023-01-30T03:15:40;11.57;;;4.93;;
6306;SDS011;3186;54.062;9.962;2023-01-30T03:18:12;15.07;;;4.00;;
6306;SDS011;3186;54.062;9.962;2023-01-30T03:20:38;13.40;;;4.20;;
6306;SDS011;3186;54.062;9.962;2023-01-30T03:23:05;15.87;;;4.07;;
6306;SDS011;3186;54.062;9.962;2023-01-30T03:25:31;17.63;;;3.53;;
6306;SDS011;3186;54.062;9.962;2023-01-30T03:28:00;12.13;;;3.07;;
6306;SDS011;3186;54.062;9.962;2023-01-30T03:30:28;14.80;;;3.40;;
6306;SDS011;3186;54.062;9.962;2023-01-30T03:33:02;10.10;;;3.40;;
6306;SDS011;3186;54.062;9.962;2023-01-30T03:35:29;9.97;;;2.87;;
6306;SDS011;3186;54.062;9.962;2023-01-30T03:37:55;11.93;;;3.17;;
6306;SDS011;3186;54.062;9.962;2023-01-30T03:40:22;12.70;;;2.87;;
6306;SDS011;3186;54.062;9.962;2023-01-30T03:42:48;11.13;;;2.47;;
6306;SDS011;3186;54.062;9.962;2023-01-30T03:45:14;18.03;;;3.17;;
6306;SDS011;3186;54.062;9.962;2023-01-30T03:47:44;15.00;;;4.07;;
6306;SDS011;3186;54.062;9.962;2023-01-30T03:50:10;8.47;;;3.03;;
6306;SDS011;3186;54.062;9.962;2023-01-30T03:52:37;12.83;;;3.23;;
6306;SDS011;3186;54.062;9.962;2023-01-30T03:55:07;15.17;;;3.57;;
6306;SDS011;3186;54.062;9.962;2023-01-30T03:57:34;12.13;;;2.97;;
6306;SDS011;3186;54.062;9.962;2023-01-30T04:00:01;13.17;;;3.67;;
6306;SDS011;3186;54.062;9.962;2023-01-30T04:02:30;16.87;;;2.63;;
6306;SDS011;3186;54.062;9.962;2023-01-30T04:04:59;10.33;;;3.30;;
6306;SDS011;3186;54.062;9.962;2023-01-30T04:07:27;12.17;;;3.13;;
6306;SDS011;3186;54.062;9.962;2023-01-30T04:09:53;16.20;;;3.70;;
6306;SDS011;3186;54.062;9.962;2023-01-30T04:12:19;12.83;;;3.23;;
6306;SDS011;3186;54.062;9.962;2023-01-30T04:14:52;16.47;;;3.27;;
6306;SDS011;3186;54.062;9.962;2023-01-30T04:17:25;20.40;;;3.90;;
6306;SDS011;3186;54.062;9.962;2023-01-30T04:20:23;19.43;;;3.70;;
6306;SDS011;3186;54.062;9.962;2023-01-30T04:22:53;14.47;;;3.13;;
6306;SDS011;3186;54.062;9.962;2023-01-30T04:25:21;19.73;;;3.73;;
6306;SDS011;3186;54.062;9.962;2023-01-30T04:27:47;17.70;;;3.43;;
6306;SDS011;3186;54.062;9.962;2023-01-30T04:30:16;16.70;;;3.67;;
6306;SDS011;3186;54.062;9.962;2023-01-30T04:32:44;18.17;;;3.57;;
6306;SDS011;3186;54.062;9.962;2023-01-30T04:35:10;20.60;;;4.40;;
6306;SDS011;3186;54.062;9.962;2023-01-30T04:37:40;21.37;;;3.50;;
6306;SDS011;3186;54.062;9.962;2023-01-30T04:40:07;15.33;;;3.57;;
6306;SDS011;3186;54.062;9.962;2023-01-30T04:42:34;20.70;;;3.40;;
6306;SDS011;3186;54.062;9.962;2023-01-30T04:45:18;21.80;;;3.67;;
6306;SDS011;3186;54.062;9.962;2023-01-30T04:47:45;17.30;;;3.23;;
6306;SDS011;3186;54.062;9.962;2023-01-30T04:50:10;21.43;;;3.73;;
6306;SDS011;3186;54.062;9.962;2023-01-30T04:52:36;17.43;;;3.53;;
6306;SDS011;3186;54.062;9.962;2023-01-30T04:55:03;14.57;;;3.20;;
6306;SDS011;3186;54.062;9.962;2023-01-30T04:57:29;19.47;;;4.73;;
6306;SDS011;3186;54.062;9.962;2023-01-30T04:59:55;31.37;;;4.43;;
6306;SDS011;3186;54.062;9.962;2023-01-30T05:02:21;21.67;;;4.07;;
6306;SDS011;3186;54.062;9.962;2023-01-30T05:04:48;15.93;;;3.67;;
6306;SDS011;3186;54.062;9.962;2023-01-30T05:07:14;22.50;;;3.73;;
6306;SDS011;3186;54.062;9.962;2023-01-30T05:09:40;18.53;;;3.70;;
6306;SDS011;3186;54.062;9.962;2023-01-30T05:12:06;21.03;;;4.47;;
6306;SDS011;3186;54.062;9.962;2023-01-30T05:14:32;24.97;;;4.43;;
6306;SDS011;3186;54.062;9.962;2023-01-30T05:16:59;22.00;;;4.23;;
6306;SDS011;3186;54.062;9.962;2023-01-30T05:19:24;18.40;;;4.00;;
6306;SDS011;3186;54.062;9.962;2023-01-30T05:21:50;22.60;;;4.13;;
6306;SDS011;3186;54.062;9.962;2023-01-30T05:24:16;23.97;;;4.77;;
6306;SDS011;3186;54.062;9.962;2023-01-30T05:26:42;22.63;;;4.27;;
6306;SDS011;3186;54.062;9.962;2023-01-30T05:29:08;22.40;;;4.40;;
6306;SDS011;3186;54.062;9.962;2023-01-30T05:31:34;30.97;;;6.10;;
6306;SDS011;3186;54.062;9.962;2023-01-30T05:34:00;27.57;;;4.27;;
6306;SDS011;3186;54.062;9.962;2023-01-30T05:36:26;34.43;;;5.33;;
6306;SDS011;3186;54.062;9.962;2023-01-30T05:38:52;25.83;;;4.87;;
6306;SDS011;3186;54.062;9.962;2023-01-30T05:41:18;28.00;;;5.13;;
6306;SDS011;3186;54.062;9.962;2023-01-30T05:43:47;28.87;;;4.63;;
6306;SDS011;3186;54.062;9.962;2023-01-30T05:46:14;30.60;;;5.27;;
6306;SDS011;3186;54.062;9.962;2023-01-30T05:48:40;39.87;;;6.40;;
6306;SDS011;3186;54.062;9.962;2023-01-30T05:51:05;35.10;;;4.67;;
6306;SDS011;3186;54.062;9.962;2023-01-30T05:53:31;25.73;;;4.83;;
6306;SDS011;3186;54.062;9.962;2023-01-30T05:56:02;33.70;;;5.67;;
6306;SDS011;3186;54.062;9.962;2023-01-30T05:58:30;28.27;;;5.33;;
6306;SDS011;3186;54.062;9.962;2023-01-30T06:01:00;35.57;;;4.63;;
6306;SDS011;3186;54.062;9.962;2023-01-30T06:03:27;26.47;;;5.40;;
6306;SDS011;3186;54.062;9.962;2023-01-30T06:05:53;20.13;;;3.90;;
6306;SDS011;3186;54.062;9.962;2023-01-30T06:08:18;22.00;;;4.70;;
6306;SDS011;3186;54.062;9.962;2023-01-30T06:10:44;25.00;;;4.77;;
6306;SDS011;3186;54.062;9.962;2023-01-30T06:13:10;22.43;;;4.67;;
6306;SDS011;3186;54.062;9.962;2023-01-30T06:15:36;28.43;;;5.57;;
6306;SDS011;3186;54.062;9.962;2023-01-30T06:18:02;20.17;;;4.37;;
6306;SDS011;3186;54.062;9.962;2023-01-30T06:20:28;26.50;;;4.97;;
6306;SDS011;3186;54.062;9.962;2023-01-30T06:22:53;31.67;;;5.40;;
6306;SDS011;3186;54.062;9.962;2023-01-30T06:25:19;20.60;;;4.00;;
6306;SDS011;3186;54.062;9.962;2023-01-30T06:27:45;26.23;;;5.00;;
6306;SDS011;3186;54.062;9.962;2023-01-30T06:30:11;34.10;;;5.07;;
6306;SDS011;3186;54.062;9.962;2023-01-30T06:32:37;35.40;;;5.17;;
6306;SDS011;3186;54.062;9.962;2023-01-30T06:35:03;24.30;;;4.73;;
6306;SDS011;3186;54.062;9.962;2023-01-30T06:37:30;26.07;;;3.90;;
6306;SDS011;3186;54.062;9.962;2023-01-30T06:39:55;32.33;;;5.10;;
6306;SDS011;3186;54.062;9.962;2023-01-30T06:42:21;29.93;;;5.10;;
6306;SDS011;3186;54.062;9.962;2023-01-30T06:44:47;36.27;;;4.33;;
6306;SDS011;3186;54.062;9.962;2023-01-30T06:47:13;29.80;;;4.60;;
6306;SDS011;3186;54.062;9.962;2023-01-30T06:49:38;25.17;;;4.37;;
6306;SDS011;3186;54.062;9.962;2023-01-30T06:52:04;29.20;;;4.03;;
6306;SDS011;3186;54.062;9.962;2023-01-30T06:54:30;28.97;;;5.97;;
6306;SDS011;3186;54.062;9.962;2023-01-30T06:56:56;27.77;;;4.30;;
6306;SDS011;3186;54.062;9.962;2023-01-30T06:59:21;23.03;;;4.67;;
6306;SDS011;3186;54.062;9.962;2023-01-30T07:01:47;22.07;;;4.63;;
6306;SDS011;3186;54.062;9.962;2023-01-30T07:04:13;19.87;;;3.90;;
6306;SDS011;3186;54.062;9.962;2023-01-30T07:06:39;24.90;;;4.30;;
6306;SDS011;3186;54.062;9.962;2023-01-30T07:09:04;26.10;;;4.20;;
6306;SDS011;3186;54.062;9.962;2023-01-30T07:11:30;26.97;;;4.30;;
6306;SDS011;3186;54.062;9.962;2023-01-30T07:13:56;17.70;;;3.77;;
6306;SDS011;3186;54.062;9.962;2023-01-30T07:16:22;21.27;;;4.13;;
6306;SDS011;3186;54.062;9.962;2023-01-30T07:18:54;21.43;;;3.43;;
6306;SDS011;3186;54.062;9.962;2023-01-30T07:21:23;21.60;;;4.43;;
6306;SDS011;3186;54.062;9.962;2023-01-30T07:23:50;17.47;;;3.20;;
6306;SDS011;3186;54.062;9.962;2023-01-30T07:26:15;18.47;;;3.30;;
6306;SDS011;3186;54.062;9.962;2023-01-30T07:28:41;20.87;;;4.40;;
6306;SDS011;3186;54.062;9.962;2023-01-30T07:31:07;24.93;;;4.33;;
6306;SDS011;3186;54.062;9.962;2023-01-30T07:33:33;23.57;;;4.40;;
6306;SDS011;3186;54.062;9.962;2023-01-30T07:35:58;20.67;;;4.07;;
6306;SDS011;3186;54.062;9.962;2023-01-30T07:38:24;27.43;;;4.70;;
6306;SDS011;3186;54.062;9.962;2023-01-30T07:40:50;23.77;;;4.43;;
6306;SDS011;3186;54.062;9.962;2023-01-30T07:43:16;27.67;;;4.53;;
6306;SDS011;3186;54.062;9.962;2023-01-30T07:45:44;24.77;;;4.70;;
6306;SDS011;3186;54.062;9.962;2023-01-30T07:48:12;35.90;;;5.10;;
6306;SDS011;3186;54.062;9.962;2023-01-30T07:50:39;23.90;;;4.57;;
6306;SDS011;3186;54.062;9.962;2023-01-30T07:53:06;28.20;;;4.13;;
6306;SDS011;3186;54.062;9.962;2023-01-30T07:55:34;29.17;;;5.63;;
6306;SDS011;3186;54.062;9.962;2023-01-30T07:58:00;33.97;;;5.30;;
6306;SDS011;3186;54.062;9.962;2023-01-30T08:00:25;23.30;;;4.80;;
6306;SDS011;3186;54.062;9.962;2023-01-30T08:02:52;36.10;;;5.37;;
6306;SDS011;3186;54.062;9.962;2023-01-30T08:05:17;35.37;;;4.73;;
6306;SDS011;3186;54.062;9.962;2023-01-30T08:07:43;38.47;;;5.50;;
6306;SDS011;3186;54.062;9.962;2023-01-30T08:10:11;40.83;;;6.07;;
6306;SDS011;3186;54.062;9.962;2023-01-30T08:12:38;28.10;;;4.60;;
6306;SDS011;3186;54.062;9.962;2023-01-30T08:15:04;33.77;;;6.20;;
6306;SDS011;3186;54.062;9.962;2023-01-30T08:17:31;40.23;;;6.87;;
6306;SDS011;3186;54.062;9.962;2023-01-30T08:19:58;31.27;;;5.80;;
6306;SDS011;3186;54.062;9.962;2023-01-30T08:22:23;36.73;;;6.20;;
6306;SDS011;3186;54.062;9.962;2023-01-30T08:24:49;40.60;;;6.37;;
6306;SDS011;3186;54.062;9.962;2023-01-30T08:27:15;41.40;;;6.70;;
6306;SDS011;3186;54.062;9.962;2023-01-30T08:29:42;36.37;;;6.87;;
6306;SDS011;3186;54.062;9.962;2023-01-30T08:32:08;32.03;;;6.40;;
6306;SDS011;3186;54.062;9.962;2023-01-30T08:34:34;41.97;;;6.10;;
6306;SDS011;3186;54.062;9.962;2023-01-30T08:37:00;37.43;;;6.73;;
6306;SDS011;3186;54.062;9.962;2023-01-30T08:39:27;41.30;;;6.13;;
6306;SDS011;3186;54.062;9.962;2023-01-30T08:41:52;37.20;;;7.20;;
6306;SDS011;3186;54.062;9.962;2023-01-30T08:44:18;37.40;;;6.37;;
6306;SDS011;3186;54.062;9.962;2023-01-30T08:46:44;39.43;;;6.07;;
6306;SDS011;3186;54.062;9.962;2023-01-30T08:49:10;34.27;;;5.70;;
6306;SDS011;3186;54.062;9.962;2023-01-30T08:51:36;34.57;;;6.73;;
6306;SDS011;3186;54.062;9.962;2023-01-30T08:54:03;35.10;;;5.30;;
6306;SDS011;3186;54.062;9.962;2023-01-30T08:56:31;35.53;;;5.73;;
6306;SDS011;3186;54.062;9.962;2023-01-30T08:58:57;34.37;;;5.83;;
6306;SDS011;3186;54.062;9.962;2023-01-30T09:01:23;33.77;;;6.53;;
6306;SDS011;3186;54.062;9.962;2023-01-30T09:03:49;41.90;;;6.83;;
6306;SDS011;3186;54.062;9.962;2023-01-30T09:06:15;31.00;;;5.43;;
6306;SDS011;3186;54.062;9.962;2023-01-30T09:08:40;29.73;;;4.77;;
6306;SDS011;3186;54.062;9.962;2023-01-30T09:11:06;31.20;;;5.90;;
6306;SDS011;3186;54.062;9.962;2023-01-30T09:13:34;25.80;;;5.27;;
6306;SDS011;3186;54.062;9.962;2023-01-30T09:16:00;27.93;;;4.83;;
6306;SDS011;3186;54.062;9.962;2023-01-30T09:18:28;30.50;;;4.80;;
6306;SDS011;3186;54.062;9.962;2023-01-30T09:21:00;35.03;;;6.27;;
6306;SDS011;3186;54.062;9.962;2023-01-30T09:23:28;32.73;;;5.90;;
6306;SDS011;3186;54.062;9.962;2023-01-30T09:25:53;39.67;;;7.33;;
6306;SDS011;3186;54.062;9.962;2023-01-30T09:28:19;22.27;;;4.63;;
6306;SDS011;3186;54.062;9.962;2023-01-30T09:30:45;30.13;;;5.43;;
6306;SDS011;3186;54.062;9.962;2023-01-30T09:33:10;33.60;;;5.87;;
6306;SDS011;3186;54.062;9.962;2023-01-30T09:35:40;31.03;;;5.47;;
6306;SDS011;3186;54.062;9.962;2023-01-30T09:38:06;23.47;;;4.43;;
6306;SDS011;3186;54.062;9.962;2023-01-30T09:40:32;22.37;;;4.67;;
6306;SDS011;3186;54.062;9.962;2023-01-30T09:48:28;17.10;;;3.60;;
6306;SDS011;3186;54.062;9.962;2023-01-30T09:56:38;16.57;;;3.97;;
6306;SDS011;3186;54.062;9.962;2023-01-30T09:59:04;10.10;;;2.50;;
6306;SDS011;3186;54.062;9.962;2023-01-30T10:04:35;21.77;;;3.93;;
6306;SDS011;3186;54.062;9.962;2023-01-30T10:26:13;10.33;;;3.30;;
6306;SDS011;3186;54.062;9.962;2023-01-30T10:28:51;23.10;;;3.70;;
6306;SDS011;3186;54.062;9.962;2023-01-30T10:31:26;13.67;;;3.07;;
6306;SDS011;3186;54.062;9.962;2023-01-30T10:34:05;12.73;;;2.20;;
6306;SDS011;3186;54.062;9.962;2023-01-30T10:36:40;14.33;;;2.00;;
6306;SDS011;3186;54.062;9.962;2023-01-30T10:39:40;12.33;;;1.97;;
6306;SDS011;3186;54.062;9.962;2023-01-30T10:42:51;8.90;;;2.53;;
6306;SDS011;3186;54.062;9.962;2023-01-30T10:46:12;7.20;;;1.57;;
6306;SDS011;3186;54.062;9.962;2023-01-30T10:48:58;5.47;;;1.53;;
6306;SDS011;3186;54.062;9.962;2023-01-30T10:54:13;3.63;;;1.20;;
6306;SDS011;3186;54.062;9.962;2023-01-30T10:59:52;2.43;;;1.20;;
6306;SDS011;3186;54.062;9.962;2023-01-30T11:05:12;6.63;;;1.67;;
6306;SDS011;3186;54.062;9.962;2023-01-30T11:07:40;6.17;;;1.43;;
6306;SDS011;3186;54.062;9.962;2023-01-30T11:10:26;11.17;;;2.37;;
6306;SDS011;3186;54.062;9.962;2023-01-30T11:12:57;5.63;;;1.37;;
6306;SDS011;3186;54.062;9.962;2023-01-30T11:15:37;11.03;;;2.40;;
6306;SDS011;3186;54.062;9.962;2023-01-30T11:18:08;7.83;;;1.70;;
6306;SDS011;3186;54.062;9.962;2023-01-30T11:20:42;9.60;;;2.00;;
6306;SDS011;3186;54.062;9.962;2023-01-30T11:23:24;8.23;;;1.50;;
6306;SDS011;3186;54.062;9.962;2023-01-30T11:25:56;8.40;;;1.83;;
6306;SDS011;3186;54.062;9.962;2023-01-30T11:28:26;10.47;;;1.63;;
6306;SDS011;3186;54.062;9.962;2023-01-30T11:30:53;7.27;;;1.90;;
6306;SDS011;3186;54.062;9.962;2023-01-30T11:33:23;6.37;;;1.73;;
6306;SDS011;3186;54.062;9.962;2023-01-30T11:36:04;12.73;;;2.47;;
6306;SDS011;3186;54.062;9.962;2023-01-30T11:38:32;4.97;;;1.60;;
6306;SDS011;3186;54.062;9.962;2023-01-30T11:43:35;12.53;;;2.90;;
6306;SDS011;3186;54.062;9.962;2023-01-30T11:46:06;15.43;;;3.10;;
6306;SDS011;3186;54.062;9.962;2023-01-30T11:48:40;15.23;;;2.40;;
6306;SDS011;3186;54.062;9.962;2023-01-30T11:51:17;15.53;;;2.53;;
6306;SDS011;3186;54.062;9.962;2023-01-30T11:53:46;22.07;;;2.70;;
6306;SDS011;3186;54.062;9.962;2023-01-30T11:56:34;18.97;;;3.30;;
6306;SDS011;3186;54.062;9.962;2023-01-30T11:59:06;9.43;;;2.50;;
6306;SDS011;3186;54.062;9.962;2023-01-30T12:01:51;15.23;;;2.67;;
6306;SDS011;3186;54.062;9.962;2023-01-30T12:04:41;20.00;;;3.30;;
6306;SDS011;3186;54.062;9.962;2023-01-30T12:09:40;10.20;;;2.10;;
6306;SDS011;3186;54.062;9.962;2023-01-30T12:13:08;18.30;;;2.97;;
6306;SDS011;3186;54.062;9.962;2023-01-30T12:15:27;13.17;;;2.77;;
6306;SDS011;3186;54.062;9.962;2023-01-30T12:20:59;16.60;;;3.67;;
6306;SDS011;3186;54.062;9.962;2023-01-30T12:23:39;17.53;;;2.70;;
6306;SDS011;3186;54.062;9.962;2023-01-30T12:31:13;17.50;;;3.43;;
6306;SDS011;3186;54.062;9.962;2023-01-30T12:33:50;18.40;;;2.80;;
6306;SDS011;3186;54.062;9.962;2023-01-30T12:42:19;18.93;;;3.87;;
6306;SDS011;3186;54.062;9.962;2023-01-30T12:48:02;23.00;;;3.87;;
6306;SDS011;3186;54.062;9.962;2023-01-30T12:53:25;22.27;;;3.80;;
6306;SDS011;3186;54.062;9.962;2023-01-30T13:03:42;18.53;;;3.77;;
6306;SDS011;3186;54.062;9.962;2023-01-30T13:12:05;22.47;;;3.90;;
6306;SDS011;3186;54.062;9.962;2023-01-30T13:17:32;15.37;;;3.27;;
6306;SDS011;3186;54.062;9.962;2023-01-30T13:25:58;20.27;;;3.50;;
6306;SDS011;3186;54.062;9.962;2023-01-30T13:28:31;21.53;;;3.67;;
6306;SDS011;3186;54.062;9.962;2023-01-30T13:31:09;22.53;;;3.87;;
6306;SDS011;3186;54.062;9.962;2023-01-30T13:33:39;19.67;;;3.60;;
6306;SDS011;3186;54.062;9.962;2023-01-30T13:38:55;20.43;;;3.93;;
6306;SDS011;3186;54.062;9.962;2023-01-30T13:41:27;33.43;;;4.20;;
6306;SDS011;3186;54.062;9.962;2023-01-30T13:43:57;34.53;;;5.90;;
6306;SDS011;3186;54.062;9.962;2023-01-30T13:46:25;33.13;;;6.00;;
6306;SDS011;3186;54.062;9.962;2023-01-30T13:54:19;35.40;;;5.47;;
6306;SDS011;3186;54.062;9.962;2023-01-30T13:57:06;33.93;;;5.80;;
6306;SDS011;3186;54.062;9.962;2023-01-30T14:02:36;23.80;;;4.67;;
6306;SDS011;3186;54.062;9.962;2023-01-30T14:08:21;22.60;;;4.33;;
6306;SDS011;3186;54.062;9.962;2023-01-30T14:10:52;25.00;;;5.03;;
6306;SDS011;3186;54.062;9.962;2023-01-30T14:13:20;36.17;;;5.83;;
6306;SDS011;3186;54.062;9.962;2023-01-30T14:18:28;30.10;;;5.60;;
6306;SDS011;3186;54.062;9.962;2023-01-30T14:23:38;24.67;;;4.20;;
6306;SDS011;3186;54.062;9.962;2023-01-30T14:26:06;25.87;;;4.37;;
6306;SDS011;3186;54.062;9.962;2023-01-30T14:31:01;36.90;;;5.03;;
6306;SDS011;3186;54.062;9.962;2023-01-30T14:39:34;21.80;;;4.70;;
6306;SDS011;3186;54.062;9.962;2023-01-30T14:41:25;24.33;;;4.87;;
6306;SDS011;3186;54.062;9.962;2023-01-30T14:43:52;19.13;;;4.87;;
6306;SDS011;3186;54.062;9.962;2023-01-30T14:51:21;25.50;;;4.27;;
6306;SDS011;3186;54.062;9.962;2023-01-30T15:10:02;26.90;;;5.50;;
6306;SDS011;3186;54.062;9.962;2023-01-30T15:12:35;30.87;;;6.37;;
6306;SDS011;3186;54.062;9.962;2023-01-30T15:23:10;28.27;;;6.07;;
6306;SDS011;3186;54.062;9.962;2023-01-30T15:26:14;34.33;;;6.23;;
6306;SDS011;3186;54.062;9.962;2023-01-30T15:31:30;31.47;;;5.47;;
6306;SDS011;3186;54.062;9.962;2023-01-30T15:33:56;34.07;;;6.13;;
6306;SDS011;3186;54.062;9.962;2023-01-30T15:39:04;35.80;;;6.90;;
6306;SDS011;3186;54.062;9.962;2023-01-30T15:41:42;38.03;;;7.60;;
6306;SDS011;3186;54.062;9.962;2023-01-30T15:52:35;36.33;;;6.30;;
6306;SDS011;3186;54.062;9.962;2023-01-30T15:57:41;33.33;;;6.13;;
6306;SDS011;3186;54.062;9.962;2023-01-30T16:00:18;26.23;;;6.10;;
6306;SDS011;3186;54.062;9.962;2023-01-30T16:02:49;31.47;;;6.37;;
6306;SDS011;3186;54.062;9.962;2023-01-30T16:07:46;28.63;;;5.97;;
6306;SDS011;3186;54.062;9.962;2023-01-30T16:12:41;34.93;;;7.27;;
6306;SDS011;3186;54.062;9.962;2023-01-30T16:15:14;25.47;;;5.33;;
6306;SDS011;3186;54.062;9.962;2023-01-30T16:20:49;27.43;;;5.50;;
6306;SDS011;3186;54.062;9.962;2023-01-30T16:23:22;23.23;;;5.63;;
6306;SDS011;3186;54.062;9.962;2023-01-30T16:25:52;30.23;;;5.70;;
6306;SDS011;3186;54.062;9.962;2023-01-30T16:28:22;31.87;;;5.83;;
6306;SDS011;3186;54.062;9.962;2023-01-30T16:31:02;31.30;;;6.70;;
6306;SDS011;3186;54.062;9.962;2023-01-30T16:33:30;34.40;;;6.17;;
6306;SDS011;3186;54.062;9.962;2023-01-30T16:36:14;35.47;;;6.80;;
6306;SDS011;3186;54.062;9.962;2023-01-30T16:38:54;29.93;;;6.27;;
6306;SDS011;3186;54.062;9.962;2023-01-30T16:41:30;35.27;;;6.23;;
6306;SDS011;3186;54.062;9.962;2023-01-30T16:44:17;28.53;;;6.13;;
6306;SDS011;3186;54.062;9.962;2023-01-30T16:49:24;32.80;;;6.43;;
6306;SDS011;3186;54.062;9.962;2023-01-30T16:52:12;25.60;;;5.80;;
6306;SDS011;3186;54.062;9.962;2023-01-30T16:54:45;39.77;;;6.37;;
6306;SDS011;3186;54.062;9.962;2023-01-30T17:00:06;31.10;;;6.20;;
6306;SDS011;3186;54.062;9.962;2023-01-30T17:02:40;35.87;;;6.13;;
6306;SDS011;3186;54.062;9.962;2023-01-30T17:05:27;29.17;;;6.47;;
6306;SDS011;3186;54.062;9.962;2023-01-30T17:07:55;25.87;;;5.23;;
6306;SDS011;3186;54.062;9.962;2023-01-30T17:13:03;24.20;;;4.90;;
6306;SDS011;3186;54.062;9.962;2023-01-30T17:15:30;20.10;;;5.30;;
6306;SDS011;3186;54.062;9.962;2023-01-30T17:17:57;23.33;;;4.93;;
6306;SDS011;3186;54.062;9.962;2023-01-30T17:20:23;16.27;;;3.70;;
6306;SDS011;3186;54.062;9.962;2023-01-30T17:22:57;20.70;;;3.73;;
6306;SDS011;3186;54.062;9.962;2023-01-30T17:25:30;21.20;;;4.53;;
6306;SDS011;3186;54.062;9.962;2023-01-30T17:28:03;14.97;;;4.10;;
6306;SDS011;3186;54.062;9.962;2023-01-30T17:30:30;17.47;;;3.87;;
6306;SDS011;3186;54.062;9.962;2023-01-30T17:32:56;14.23;;;3.23;;
6306;SDS011;3186;54.062;9.962;2023-01-30T17:35:22;14.67;;;3.40;;
6306;SDS011;3186;54.062;9.962;2023-01-30T17:37:48;15.50;;;3.40;;
6306;SDS011;3186;54.062;9.962;2023-01-30T17:40:16;16.77;;;3.37;;
6306;SDS011;3186;54.062;9.962;2023-01-30T17:42:43;17.63;;;3.60;;
6306;SDS011;3186;54.062;9.962;2023-01-30T17:45:11;28.50;;;4.17;;
6306;SDS011;3186;54.062;9.962;2023-01-30T17:47:37;15.70;;;3.50;;
6306;SDS011;3186;54.062;9.962;2023-01-30T17:50:03;20.40;;;3.33;;
6306;SDS011;3186;54.062;9.962;2023-01-30T17:52:29;19.00;;;3.80;;
6306;SDS011;3186;54.062;9.962;2023-01-30T17:54:55;14.80;;;4.03;;
6306;SDS011;3186;54.062;9.962;2023-01-30T17:57:20;19.47;;;3.20;;
6306;SDS011;3186;54.062;9.962;2023-01-30T17:59:46;20.33;;;3.67;;
6306;SDS011;3186;54.062;9.962;2023-01-30T18:02:12;15.53;;;3.97;;
6306;SDS011;3186;54.062;9.962;2023-01-30T18:04:38;13.83;;;3.13;;
6306;SDS011;3186;54.062;9.962;2023-01-30T18:07:04;18.67;;;4.13;;
6306;SDS011;3186;54.062;9.962;2023-01-30T18:09:34;25.27;;;4.50;;
6306;SDS011;3186;54.062;9.962;2023-01-30T18:12:00;14.47;;;3.43;;
6306;SDS011;3186;54.062;9.962;2023-01-30T18:14:26;19.00;;;4.27;;
6306;SDS011;3186;54.062;9.962;2023-01-30T18:16:52;19.13;;;4.07;;
6306;SDS011;3186;54.062;9.962;2023-01-30T18:19:24;26.77;;;5.23;;
6306;SDS011;3186;54.062;9.962;2023-01-30T18:21:51;26.93;;;4.50;;
6306;SDS011;3186;54.062;9.962;2023-01-30T18:24:17;19.23;;;3.70;;
6306;SDS011;3186;54.062;9.962;2023-01-30T18:26:43;24.07;;;4.47;;
6306;SDS011;3186;54.062;9.962;2023-01-30T18:29:10;20.83;;;4.20;;
6306;SDS011;3186;54.062;9.962;2023-01-30T18:31:36;22.63;;;4.33;;
6306;SDS011;3186;54.062;9.962;2023-01-30T18:34:03;22.63;;;4.43;;
6306;SDS011;3186;54.062;9.962;2023-01-30T18:36:31;19.87;;;3.77;;
6306;SDS011;3186;54.062;9.962;2023-01-30T18:38:58;24.53;;;5.30;;
6306;SDS011;3186;54.062;9.962;2023-01-30T18:41:24;26.17;;;4.97;;
6306;SDS011;3186;54.062;9.962;2023-01-30T18:43:54;23.83;;;4.47;;
6306;SDS011;3186;54.062;9.962;2023-01-30T18:46:20;23.73;;;5.13;;
6306;SDS011;3186;54.062;9.962;2023-01-30T18:48:46;28.10;;;5.07;;
6306;SDS011;3186;54.062;9.962;2023-01-30T18:51:13;26.93;;;5.33;;